SV1LH-1 Melissia GR current weather conditions

sailwx.info

Wind from 045 at 2 knots gusting 4

Air temperature 10.6° C
Dewpoint 8.6° C

Last reported at 2014-Oct-26 08:50 UTC.
Time now 2014-Oct-26 09:40 UTC

Location: N 38°03' E 023°51'.
View on Google Maps.

See reports from other nearby stations

  
Tides and Currents Weather Stations Pressure Air Temp Water Temp Dewpoint Dewpoint Depression Visibility Wind Speed Wind Dir Waves Ship Positions
date/time (UTC)wind fromknots sea level pressurealtimeterstation pressurevisibilityair tempwater tempwave heightnotes
2014-Oct-26 08:50 045 2 gusting 4 10.6
2014-Oct-26 08:45 10.6
2014-Oct-26 08:40 067 2 gusting 3 10.6
2014-Oct-26 08:35 337 4 gusting 6 10.6
2014-Oct-26 08:30 112 10.0
2014-Oct-26 08:25 10.0
2014-Oct-26 08:20 022 3 gusting 6 10.0
2014-Oct-26 08:15 315 3 gusting 5 10.0
2014-Oct-26 08:10 337 4 gusting 7 10.0
2014-Oct-26 08:05 045 2 gusting 5 10.0
2014-Oct-26 08:00 337 3 gusting 4 10.6
2014-Oct-26 07:55 315 4 gusting 7 10.6
2014-Oct-26 07:50 292 2 gusting 4 10.6
2014-Oct-26 07:45 10.6
2014-Oct-26 07:40 022 1 gusting 2 10.0
2014-Oct-26 07:35 067 6 gusting 10 10.6
2014-Oct-26 07:30 315 1 gusting 2 10.6
2014-Oct-26 07:25 10.6
2014-Oct-26 07:20 10.6
2014-Oct-26 07:15 10.6
2014-Oct-26 07:10 337 3 gusting 5 10.6
2014-Oct-26 07:05 337 7 gusting 13 10.6
2014-Oct-26 07:00 022 3 gusting 7 10.6
2014-Oct-26 06:55 315 6 gusting 8 10.6
2014-Oct-26 06:50 10.6
2014-Oct-26 06:45 045 4 gusting 6 10.6
2014-Oct-26 06:40 315 4 gusting 8 10.6
2014-Oct-26 06:36 10.6
2014-Oct-26 06:30 022 4 gusting 6 10.6
2014-Oct-26 06:25 10.6
2014-Oct-26 06:20 045 6 gusting 12 10.6
2014-Oct-26 06:15 10.6
2014-Oct-26 06:10 022 10 gusting 15 10.0
2014-Oct-26 06:05 045 4 gusting 6 10.0
2014-Oct-26 06:00 10.0
2014-Oct-26 05:55 022 6 gusting 9 10.0
2014-Oct-26 05:50 10.0
2014-Oct-26 05:45 022 6 gusting 11 10.0
2014-Oct-26 05:40 022 6 gusting 11 10.6
2014-Oct-26 05:35 045 6 gusting 10 10.0
2014-Oct-26 05:31 315 4 gusting 7 10.0
2014-Oct-26 05:25 10.0
2014-Oct-26 05:20 022 9 gusting 16 10.0
2014-Oct-26 05:15 10.0
2014-Oct-26 05:10 247 5 gusting 7 10.0
2014-Oct-26 05:05 10.0
2014-Oct-26 05:00 022 6 gusting 10 10.0
2014-Oct-26 04:55 022 6 gusting 12 10.0
2014-Oct-26 04:50 315 4 gusting 7 10.0
2014-Oct-26 04:45 9.4
2014-Oct-26 04:40 10.0
2014-Oct-26 04:35 10.0
2014-Oct-26 04:30 10.0
2014-Oct-26 04:25 337 2 gusting 5 10.0
2014-Oct-26 04:20 337 5 gusting 7 10.0
2014-Oct-26 04:15 337 3 gusting 5 10.0
2014-Oct-26 04:10 292 7 gusting 14 10.0
2014-Oct-26 04:05 337 5 gusting 9 9.4
2014-Oct-26 04:00 045 7 gusting 12 9.4
2014-Oct-26 03:55 045 5 gusting 6 9.4
2014-Oct-26 03:50 315 4 gusting 6 9.4
2014-Oct-26 03:45 067 4 gusting 7 9.4
2014-Oct-26 03:40 022 3 gusting 5 9.4
2014-Oct-26 03:35 337 5 gusting 9 9.4
2014-Oct-26 03:30 9.4
2014-Oct-26 03:25 045 5 gusting 7 9.4
2014-Oct-26 03:20 045 4 gusting 6 9.4
2014-Oct-26 03:15 270 6 gusting 11 9.4
2014-Oct-26 03:10 9.4
2014-Oct-26 03:05 9.4
2014-Oct-26 03:00 337 5 gusting 6 10.0
2014-Oct-26 02:55 045 6 gusting 10 10.0
2014-Oct-26 02:50 10.0
2014-Oct-26 02:45 022 5 gusting 9 10.0
2014-Oct-26 02:40 022 8 gusting 11 10.0
2014-Oct-26 02:35 10.0
2014-Oct-26 02:30 315 4 gusting 6 10.0
2014-Oct-26 02:25 022 3 gusting 7 10.0
2014-Oct-26 02:20 10.0
2014-Oct-26 02:15 022 5 gusting 9 10.6
2014-Oct-26 02:10 292 4 gusting 7 10.6
2014-Oct-26 02:05 10.6
2014-Oct-26 02:00 045 5 gusting 6 10.6
2014-Oct-26 01:55 10.6
2014-Oct-26 01:50 10.6
2014-Oct-26 01:45 045 4 gusting 6 10.6
2014-Oct-26 01:41 10.6
2014-Oct-26 01:35 10.6
2014-Oct-26 01:30 10.6
2014-Oct-26 01:25 10.6
2014-Oct-26 01:20 292 8 gusting 12 10.6
2014-Oct-26 01:15 045 8 gusting 12 10.6
2014-Oct-26 01:10 315 11 gusting 15 10.6
2014-Oct-26 01:05 045 5 gusting 8 10.6
2014-Oct-26 01:00 10.6
2014-Oct-26 00:55 10.6
2014-Oct-26 00:50 045 9 gusting 13 10.0
2014-Oct-26 00:45 045 8 gusting 16 10.0
2014-Oct-26 00:40 337 6 gusting 10 10.0
2014-Oct-26 00:35 045 6 gusting 8 10.6
2014-Oct-26 00:30 045 7 gusting 10 10.6
2014-Oct-26 00:25 022 7 gusting 11 10.6
2014-Oct-26 00:20 10.6
2014-Oct-26 00:15 045 4 gusting 8 10.6
2014-Oct-26 00:10 11.1
2014-Oct-26 00:05 337 3 gusting 6 11.1
2014-Oct-26 00:00 022 4 gusting 6 11.7
2014-Oct-25 23:55 045 3 gusting 6 11.7
2014-Oct-25 23:50 315 5 gusting 7 11.1
2014-Oct-25 23:45 11.1
2014-Oct-25 23:40 10.6
2014-Oct-25 23:35 10.6
2014-Oct-25 23:30 022 2 gusting 3 10.0
2014-Oct-25 23:25 045 10.0
2014-Oct-25 23:20 022 0 gusting 1 10.0
2014-Oct-25 23:13 10.0
2014-Oct-25 23:10 315 1 gusting 1 10.0
2014-Oct-25 23:05 022 3 gusting 4 10.0
2014-Oct-25 23:00 247 1 gusting 1 10.0
2014-Oct-25 22:55 10.0
2014-Oct-25 22:50 292 10.0
2014-Oct-25 22:45 10.0
2014-Oct-25 22:40 337 1 gusting 2 10.0
2014-Oct-25 22:35 247 0 gusting 2 9.4
2014-Oct-25 22:30 292 0 gusting 1 9.4
2014-Oct-25 22:25 9.4
2014-Oct-25 22:20 315 1 gusting 1 9.4
2014-Oct-25 22:15 022 1 gusting 1 9.4
2014-Oct-25 22:10 270 1 gusting 2 9.4
2014-Oct-25 22:05 090 0 gusting 1 8.9
2014-Oct-25 22:00 8.9
2014-Oct-25 21:55 022 8.9
2014-Oct-25 21:50 315 8.9
2014-Oct-25 21:45 270 0 gusting 1 8.9
2014-Oct-25 21:40 247 1 gusting 2 8.9
2014-Oct-25 21:35 8.9
2014-Oct-25 21:30 270 1 gusting 2 8.9
2014-Oct-25 21:25 022 0 gusting 0 8.9
2014-Oct-25 21:20 247 8.9
2014-Oct-25 21:16 022 8.9
2014-Oct-25 21:10 270 9.4
2014-Oct-25 21:05 315 10.0
2014-Oct-25 21:00 292 1 gusting 1 10.0
2014-Oct-25 20:55 270 1 gusting 2 10.6
2014-Oct-25 20:51 337 2 gusting 5 10.0
2014-Oct-25 20:45 10.0
2014-Oct-25 20:40 315 3 gusting 6 9.4
2014-Oct-25 20:35 315 2 gusting 4 9.4
2014-Oct-25 20:31 022 2 gusting 4 9.4
2014-Oct-25 20:25 315 0 gusting 3 9.4
2014-Oct-25 20:20 337 1 gusting 2 9.4
2014-Oct-25 20:16 022 0 gusting 1 10.0
2014-Oct-25 20:11 315 1 gusting 2 10.0
2014-Oct-25 20:05 225 2 gusting 3 10.0
2014-Oct-25 20:00 315 1 gusting 3 10.0
2014-Oct-25 19:55 292 2 gusting 3 10.6
2014-Oct-25 19:50 10.6
2014-Oct-25 19:45 10.6
2014-Oct-25 19:40 10.6
2014-Oct-25 19:36 022 2 gusting 5 10.6
2014-Oct-25 19:30 315 2 gusting 3 10.6
2014-Oct-25 19:25 10.6
2014-Oct-25 19:20 022 1 gusting 3 10.6
2014-Oct-25 19:15 022 3 gusting 5 10.6
2014-Oct-25 19:11 022 3 gusting 5 10.6
2014-Oct-25 19:05 045 3 gusting 6 10.6
2014-Oct-25 19:00 022 4 gusting 6 10.6
2014-Oct-25 18:55 10.0
2014-Oct-25 18:50 10.0
2014-Oct-25 18:45 10.0
2014-Oct-25 18:40 10.6
2014-Oct-25 18:36 10.6
2014-Oct-25 18:30 315 2 gusting 3 10.6
2014-Oct-25 18:26 10.6
2014-Oct-25 18:20 022 5 gusting 7 10.6
2014-Oct-25 18:15 10.6
2014-Oct-25 18:10 045 4 gusting 6 10.6
2014-Oct-25 18:05 045 3 gusting 4 10.6
2014-Oct-25 18:00 022 6 gusting 7 10.6
2014-Oct-25 17:55 045 4 gusting 5 10.6
2014-Oct-25 17:50 022 4 gusting 6 10.6
2014-Oct-25 17:45 022 4 gusting 6 10.6
2014-Oct-25 17:40 022 5 gusting 6 10.6
2014-Oct-25 17:35 10.6
2014-Oct-25 17:30 10.6
2014-Oct-25 17:25 090 4 gusting 6 10.6
2014-Oct-25 17:21 135 3 gusting 5 10.6
2014-Oct-25 17:16 10.6
2014-Oct-25 17:10 022 2 gusting 4 10.6
2014-Oct-25 17:05 10.6
2014-Oct-25 17:00 022 7 gusting 10 10.6
2014-Oct-25 16:55 045 3 gusting 5 10.6
2014-Oct-25 16:50 022 4 gusting 6 10.6
2014-Oct-25 16:45 022 4 gusting 6 10.6
2014-Oct-25 16:40 247 3 gusting 6 10.6
2014-Oct-25 16:35 045 5 gusting 7 10.6
2014-Oct-25 16:30 315 3 gusting 6 10.6
2014-Oct-25 16:26 337 1 gusting 3 10.6
2014-Oct-25 16:20 10.6
2014-Oct-25 16:15 022 5 gusting 6 10.6
2014-Oct-25 16:10 337 3 gusting 5 10.6
2014-Oct-25 16:05 045 3 gusting 5 10.6
2014-Oct-25 16:00 022 4 gusting 6 10.6
2014-Oct-25 15:55 045 2 gusting 6 10.6
2014-Oct-25 15:50 045 2 gusting 5 10.6
2014-Oct-25 15:45 022 3 gusting 6 11.1
2014-Oct-25 15:40 045 4 gusting 6 11.1
2014-Oct-25 15:35 11.1
2014-Oct-25 15:31 022 3 gusting 6 11.7
2014-Oct-25 15:25 045 6 gusting 8 12.2
2014-Oct-25 15:20 045 4 gusting 8 12.2
2014-Oct-25 15:15 045 2 gusting 3 12.8
2014-Oct-25 15:10 12.8
2014-Oct-25 15:05 12.8
2014-Oct-25 15:00 337 6 gusting 8 12.8
2014-Oct-25 14:55 022 3 gusting 5 12.8
2014-Oct-25 14:50 225 2 gusting 4 12.8
2014-Oct-25 14:45 022 4 gusting 6 13.3
2014-Oct-25 14:40 022 3 gusting 6 13.9
2014-Oct-25 14:35 045 5 gusting 7 14.4
2014-Oct-25 14:30 14.4
2014-Oct-25 14:25 045 4 gusting 5 14.4
2014-Oct-25 14:20 022 5 gusting 6 14.4
2014-Oct-25 14:15 13.9
2014-Oct-25 14:10 045 4 gusting 6 13.9
2014-Oct-25 14:05 022 5 gusting 7 14.4
2014-Oct-25 14:00 045 4 gusting 6 15.6
2014-Oct-25 13:55 16.1
2014-Oct-25 13:50 315 4 gusting 6 16.1
2014-Oct-25 13:45 315 6 gusting 8 16.1
2014-Oct-25 13:40 045 4 gusting 6 16.1
2014-Oct-25 13:35 045 6 gusting 7 16.7
2014-Oct-25 13:30 16.7
2014-Oct-25 13:25 16.7
2014-Oct-25 11:34 270 0 gusting 1 12.8
2014-Oct-25 11:30 337 12.8
2014-Oct-25 11:25 270 12.8
2014-Oct-25 11:20 270 13.3
2014-Oct-25 11:15 270 12.8
2014-Oct-25 11:10 315 1 gusting 1 12.8
2014-Oct-25 11:05 292 2 gusting 3 12.8
2014-Oct-25 11:00 022 2 gusting 3 12.8
2014-Oct-25 10:55 12.8
2014-Oct-25 10:50 292 1 gusting 3 12.8
2014-Oct-25 10:45 022 4 gusting 5 13.3
2014-Oct-25 10:40 13.3
2014-Oct-25 10:35 337 0 gusting 1 13.3
2014-Oct-25 10:30 315 3 gusting 5 13.3
2014-Oct-25 10:25 045 0 gusting 1 13.3
2014-Oct-25 10:20 045 0 gusting 2 13.3
2014-Oct-25 10:15 13.3
2014-Oct-25 10:10 315 1 gusting 2 12.8
2014-Oct-25 10:05 337 12.2
2014-Oct-25 10:00 337 0 gusting 1 12.2
2014-Oct-25 09:55 315 0 gusting 2 12.2
2014-Oct-25 09:50 337 2 gusting 3 12.2
2014-Oct-25 09:45 315 0 gusting 1 12.8
2014-Oct-25 09:40 315 1 gusting 2 12.8
2014-Oct-25 09:35 315 13.3
2014-Oct-25 09:30 292 13.3
2014-Oct-25 09:25 112 0 gusting 1 13.3
2014-Oct-25 09:20 292 0 gusting 1 13.3
2014-Oct-25 09:15 292 1 gusting 1 13.3
2014-Oct-25 09:10 12.8
2014-Oct-25 09:05 270 0 gusting 1 12.8
2014-Oct-25 09:00 315 12.8
2014-Oct-25 08:55 12.8
2014-Oct-25 08:50 13.3
2014-Oct-25 08:45 315 1 gusting 4 13.3
2014-Oct-25 08:40 13.3
2014-Oct-25 08:35 315 0 gusting 1 13.3
2014-Oct-25 08:30 315 0 gusting 2 12.8
2014-Oct-25 08:25 270 12.8
2014-Oct-25 08:20 315 0 gusting 0 13.3
2014-Oct-25 08:15 337 3 gusting 5 13.3
2014-Oct-25 08:10 270 1 gusting 3 13.3
2014-Oct-25 08:05 315 1 gusting 3 13.3
2014-Oct-25 08:00 270 13.9
2014-Oct-25 07:55 292 13.9
2014-Oct-25 07:50 315 0 gusting 0 13.9
2014-Oct-25 07:45 292 0 gusting 1 14.4
2014-Oct-25 07:40 315 0 gusting 1 15.0
2014-Oct-25 07:35 315 1 gusting 2 15.6
2014-Oct-25 07:30 270 16.1
2014-Oct-25 07:25 270 16.7
2014-Oct-25 07:20 337 1 gusting 3 17.2
2014-Oct-25 07:15 17.2
2014-Oct-25 07:10 337 1 gusting 3 15.6
2014-Oct-25 07:05 13.9
2014-Oct-25 07:00 13.3
2014-Oct-25 06:55 045 2 gusting 3 12.2
2014-Oct-25 06:50 022 4 gusting 6 12.2
2014-Oct-25 06:30 12.2
2014-Oct-25 06:25 045 3 gusting 4 11.7
2014-Oct-25 06:20 11.1
2014-Oct-25 06:15 337 2 gusting 4 11.7
2014-Oct-25 06:10 337 3 gusting 3 11.7
2014-Oct-25 06:05 022 1 gusting 2 11.7
2014-Oct-25 06:00 11.7
2014-Oct-25 05:55 12.2
2014-Oct-25 05:50 12.2
2014-Oct-25 05:45 12.8
2014-Oct-25 05:40 12.2
2014-Oct-25 05:35 022 12.2
2014-Oct-25 05:30 022 12.2
2014-Oct-25 05:25 022 11.1
2014-Oct-25 05:20 090 10.6
2014-Oct-25 05:15 067 10.0
2014-Oct-25 05:10 090 9.4
2014-Oct-25 05:05 8.9
2014-Oct-25 05:00 090 8.9
2014-Oct-25 04:55 090 8.3
2014-Oct-25 04:50 090 8.3
2014-Oct-25 04:45 067 8.3
2014-Oct-25 04:40 090 8.3
2014-Oct-25 04:35 090 7.8
2014-Oct-25 04:30 022 7.8
2014-Oct-25 04:25 090 7.8
2014-Oct-25 04:20 090 7.8
2014-Oct-25 04:15 090 7.8
2014-Oct-25 04:10 112 7.8
2014-Oct-25 04:05 090 8.3
2014-Oct-25 04:00 067 8.3
2014-Oct-25 03:55 112 8.3
2014-Oct-25 03:50 112 8.3
2014-Oct-25 03:45 8.3
2014-Oct-25 03:40 067 8.3
2014-Oct-25 03:35 067 8.3
2014-Oct-25 03:30 067 7.8
2014-Oct-25 03:25 315 7.8
2014-Oct-25 03:20 090 7.8
2014-Oct-25 03:15 067 7.8
2014-Oct-25 03:10 090 7.8
2014-Oct-25 03:05 067 7.8
2014-Oct-25 03:00 067 7.8
2014-Oct-25 02:55 090 7.8
2014-Oct-25 02:50 090 0 gusting 1 7.8
2014-Oct-25 02:45 090 7.8
2014-Oct-25 02:40 090 8.3
2014-Oct-25 02:35 022 1 gusting 2 8.3
2014-Oct-25 02:30 090 2 gusting 3 8.3
2014-Oct-25 02:25 090 1 gusting 3 8.3
2014-Oct-25 02:20 067 8.3
2014-Oct-25 02:15 090 2 gusting 3 8.3
2014-Oct-25 02:10 067 8.3
2014-Oct-25 02:05 112 0 gusting 1 8.3
2014-Oct-25 02:00 022 8.3
2014-Oct-25 01:55 067 8.3
2014-Oct-25 01:50 090 2 gusting 3 8.3
2014-Oct-25 01:45 090 0 gusting 0 8.3
2014-Oct-25 01:40 045 1 gusting 3 8.3
2014-Oct-25 01:35 090 1 gusting 2 8.3
2014-Oct-25 01:30 067 1 gusting 2 7.8
2014-Oct-25 01:25 045 7.8
2014-Oct-25 01:20 045 7.8
2014-Oct-25 01:15 112 7.8
2014-Oct-25 01:10 090 7.8
2014-Oct-25 01:05 112 7.8
2014-Oct-25 01:00 090 7.8
2014-Oct-25 00:55 090 7.8
2014-Oct-25 00:50 090 1 gusting 1 7.2
2014-Oct-25 00:45 090 7.2
2014-Oct-25 00:40 045 7.2
2014-Oct-25 00:35 067 7.2
2014-Oct-25 00:30 090 7.2
2014-Oct-25 00:25 180 7.8
2014-Oct-25 00:20 090 1 gusting 2 7.8
2014-Oct-25 00:15 067 7.8
2014-Oct-25 00:11 112 0 gusting 1 7.8
2014-Oct-25 00:05 090 7.8
2014-Oct-25 00:00 090 7.8
2014-Oct-24 23:55 090 7.8
2014-Oct-24 23:51 090 4 gusting 5 7.8
2014-Oct-24 23:45 067 2 gusting 4 7.8
2014-Oct-24 23:40 067 1 gusting 2 7.8
2014-Oct-24 23:35 045 0 gusting 1 7.8
2014-Oct-24 23:30 090 3 gusting 5 7.8
2014-Oct-24 23:25 090 0 gusting 0 7.8
2014-Oct-24 23:20 135 7.8
2014-Oct-24 23:15 112 7.8
2014-Oct-24 23:10 7.8
2014-Oct-24 23:05 022 0 gusting 1 7.8
2014-Oct-24 23:00 067 7.8
2014-Oct-24 22:55 090 7.8
2014-Oct-24 22:50 067 7.8
2014-Oct-24 22:45 247 8.3
2014-Oct-24 22:40 067 8.3
2014-Oct-24 22:35 8.3
2014-Oct-24 22:30 8.3
2014-Oct-24 22:25 8.9
2014-Oct-24 22:20 8.9
2014-Oct-24 22:15 8.9
2014-Oct-24 22:10 315 8.9
2014-Oct-24 22:06 202 9.4
2014-Oct-24 22:00 10.0
2014-Oct-24 21:55 337 10.0
2014-Oct-24 21:50 10.0
2014-Oct-24 21:45 337 10.0
2014-Oct-24 21:40 292 1 gusting 2 10.0
2014-Oct-24 21:35 315 2 gusting 4 10.0
2014-Oct-24 21:30 270 0 gusting 1 10.6
2014-Oct-24 21:25 315 2 gusting 5 10.6
2014-Oct-24 21:20 225 0 gusting 3 10.0
2014-Oct-24 21:15 270 1 gusting 3 10.0
2014-Oct-24 21:10 270 1 gusting 3 10.0
2014-Oct-24 21:05 270 10.6
2014-Oct-24 21:00 292 1 gusting 5 10.0
2014-Oct-24 20:55 270 0 gusting 0 10.0
2014-Oct-24 20:50 292 2 gusting 3 10.0
2014-Oct-24 20:45 292 2 gusting 4 10.0
2014-Oct-24 20:40 292 3 gusting 4 10.0
2014-Oct-24 20:35 315 2 gusting 3 10.0
2014-Oct-24 20:30 315 2 gusting 4 10.0
2014-Oct-24 20:25 315 2 gusting 4 10.0
2014-Oct-24 20:20 247 2 gusting 5 9.4
2014-Oct-24 20:15 315 0 gusting 1 9.4
2014-Oct-24 20:10 270 3 gusting 5 8.9
2014-Oct-24 20:05 270 1 gusting 3 8.9
2014-Oct-24 20:00 045 9.4
2014-Oct-24 19:55 022 9.4
2014-Oct-24 19:51 292 1 gusting 2 9.4
2014-Oct-24 19:45 292 1 gusting 3 9.4
2014-Oct-24 19:40 247 1 gusting 3 9.4
2014-Oct-24 19:35 180 9.4
2014-Oct-24 19:31 270 0 gusting 1 10.0
2014-Oct-24 19:25 292 2 gusting 3 10.0
2014-Oct-24 19:20 247 1 gusting 2 10.0
2014-Oct-24 19:15 225 1 gusting 3 10.0
2014-Oct-24 19:10 225 2 gusting 3 10.0
2014-Oct-24 19:05 270 1 gusting 4 10.6
2014-Oct-24 19:00 292 2 gusting 3 10.6
2014-Oct-24 18:55 270 3 gusting 6 10.6
2014-Oct-24 18:50 247 3 gusting 6 10.6
2014-Oct-24 18:45 247 6 gusting 11 11.1
2014-Oct-24 18:40 270 4 gusting 9 11.1
2014-Oct-24 18:35 247 6 gusting 10 11.1
2014-Oct-24 18:30 225 0 gusting 4 10.6
2014-Oct-24 18:25 022 10.6
2014-Oct-24 18:20 315 10.6
2014-Oct-24 18:15 067 0 gusting 1 10.6
2014-Oct-24 18:10 090 0 gusting 2 10.6
2014-Oct-24 18:05 045 10.6
2014-Oct-24 18:00 022 10.6
2014-Oct-24 17:55 090 10.6
2014-Oct-24 17:50 292 0 gusting 1 10.6
2014-Oct-24 17:45 247 2 gusting 4 10.0
2014-Oct-24 17:40 112 4 gusting 6 10.0
2014-Oct-24 17:35 202 3 gusting 6 10.0
2014-Oct-24 17:31 270 6 gusting 9 10.6
2014-Oct-24 17:25 292 7 gusting 14 12.2
2014-Oct-24 17:20 157 5 gusting 7 13.3
2014-Oct-24 17:15 225 4 gusting 5 13.3
2014-Oct-24 17:10 135 3 gusting 4 13.3
2014-Oct-24 17:05 180 3 gusting 3 13.3
2014-Oct-24 17:00 157 0 gusting 1 13.3
2014-Oct-24 16:55 180 1 gusting 5 13.3
2014-Oct-24 16:50 112 2 gusting 3 13.3
2014-Oct-24 16:45 112 1 gusting 2 13.3
2014-Oct-24 16:40 112 2 gusting 3 13.3
2014-Oct-24 16:35 135 0 gusting 1 13.3
2014-Oct-24 16:30 090 1 gusting 2 13.3
2014-Oct-24 16:25 180 1 gusting 1 13.3
2014-Oct-24 16:20 180 0 gusting 2 13.3
2014-Oct-24 16:15 180 2 gusting 4 13.3
2014-Oct-24 16:10 135 3 gusting 5 13.3
2014-Oct-24 16:05 202 1 gusting 1 13.3
2014-Oct-24 16:00 247 1 gusting 3 13.3
2014-Oct-24 15:55 157 3 gusting 6 13.3
2014-Oct-24 15:50 180 3 gusting 5 13.3
2014-Oct-24 15:45 180 3 gusting 5 13.3
2014-Oct-24 15:40 157 3 gusting 6 13.3
2014-Oct-24 15:35 225 2 gusting 3 13.3
2014-Oct-24 15:30 202 3 gusting 4 13.3
2014-Oct-24 15:25 157 3 gusting 6 13.3
2014-Oct-24 15:20 090 3 gusting 5 13.3
2014-Oct-24 15:15 112 2 gusting 4 13.3
2014-Oct-24 15:10 157 2 gusting 5 13.9
2014-Oct-24 15:05 112 2 gusting 5 13.9
2014-Oct-24 15:00 180 2 gusting 4 13.9
2014-Oct-24 14:55 202 3 gusting 4 13.9
2014-Oct-24 14:50 180 1 gusting 3 13.9
2014-Oct-24 14:45 157 5 gusting 6 13.9
2014-Oct-24 14:20 090 5 gusting 10 13.3
2014-Oct-24 14:15 112 10 gusting 15 13.3
2014-Oct-24 14:10 135 8 gusting 16 13.3
2014-Oct-24 14:05 135 6 gusting 12 13.3
2014-Oct-24 14:00 112 6 gusting 7 12.8
2014-Oct-24 13:55 135 7 gusting 14 12.8
2014-Oct-24 13:50 157 6 gusting 10 12.8
2014-Oct-24 13:45 157 4 gusting 6 12.2
2014-Oct-24 13:40 112 5 gusting 8 12.2
2014-Oct-24 13:35 045 1 gusting 3 12.2
2014-Oct-24 13:30 090 3 gusting 5 12.2
2014-Oct-24 13:25 112 1 gusting 2 12.2
2014-Oct-24 13:21 247 2 gusting 4 12.2
2014-Oct-24 13:15 315 2 gusting 4 12.8
2014-Oct-24 13:10 247 0 gusting 2 12.8
2014-Oct-24 13:05 337 0 gusting 1 12.8
2014-Oct-24 13:00 157 6 gusting 11 12.8
2014-Oct-24 12:55 202 3 gusting 5 12.8
2014-Oct-24 12:50 157 6 gusting 13 12.8
2014-Oct-24 12:45 112 5 gusting 9 12.8
2014-Oct-24 12:40 157 9 gusting 16 13.3
2014-Oct-24 12:35 112 5 gusting 7 13.3
2014-Oct-24 12:30 180 5 gusting 8 13.3
2014-Oct-24 12:25 135 4 gusting 8 13.3
2014-Oct-24 12:20 270 7 gusting 15 13.3
2014-Oct-24 12:15 090 7 gusting 12 13.3
2014-Oct-24 12:10 090 7 gusting 12 13.3
2014-Oct-24 12:05 13.3
2014-Oct-24 12:00 112 6 gusting 9 13.3
2014-Oct-24 11:55 112 6 gusting 12 13.3
2014-Oct-24 11:50 157 6 gusting 9 13.3
2014-Oct-24 11:45 180 3 gusting 7 13.3
2014-Oct-24 11:40 157 4 gusting 6 13.3
2014-Oct-24 11:35 180 4 gusting 6 13.9
2014-Oct-24 11:30 157 6 gusting 9 13.9
2014-Oct-24 11:25 135 6 gusting 13 13.9
2014-Oct-24 11:20 180 6 gusting 9 13.3
2014-Oct-24 11:15 135 5 gusting 7 13.3
2014-Oct-24 11:10 135 3 gusting 6 13.3
2014-Oct-24 11:05 225 2 gusting 4 13.3
2014-Oct-24 11:00 135 4 gusting 8 13.9
2014-Oct-24 10:55 135 3 gusting 6 13.9
2014-Oct-24 10:50 135 6 gusting 10 13.9
2014-Oct-24 10:45 112 3 gusting 6 13.9
2014-Oct-24 10:40 157 4 gusting 7 13.9
2014-Oct-24 10:35 157 7 gusting 12 13.3
2014-Oct-24 10:30 112 1 gusting 3 13.3
2014-Oct-24 10:25 135 0 gusting 1 12.8
2014-Oct-24 10:20 180 3 gusting 3 12.8
2014-Oct-24 10:15 135 2 gusting 3 12.8
2014-Oct-24 10:10 180 4 gusting 5 12.2
2014-Oct-24 10:05 135 4 gusting 6 12.2
2014-Oct-24 10:00 135 3 gusting 6 12.2
2014-Oct-24 09:55 12.8
2014-Oct-24 09:50 067 3 gusting 5 12.8
2014-Oct-24 09:45 112 4 gusting 6 12.8
2014-Oct-24 09:40 112 2 gusting 5 13.3
2014-Oct-24 09:35 180 3 gusting 5 13.3
2014-Oct-24 09:30 112 3 gusting 5 13.3
2014-Oct-24 09:25 112 6 gusting 8 13.3
2014-Oct-24 09:20 067 4 gusting 9 13.3
2014-Oct-24 09:15 090 4 gusting 6 13.3
2014-Oct-24 09:10 112 4 gusting 10 13.9
2014-Oct-24 09:05 112 3 gusting 8 14.4
2014-Oct-24 09:00 090 6 gusting 8 15.0